Time;durP1;ratioP1;P1;durP2;ratioP2;P2;SDS_P1;SDS_P2;PMS_P1;PMS_P2;Temp;Humidity;BMP_temperature;BMP_pressure;BME280_temperature;BME280_humidity;BME280_pressure;Samples;Min_cycle;Max_cycle;Signal;HPM_P1;HPM_P2
2021/03/10 00:00:20;;;;;;;17.50;13.75;;;5.10;92.40;;;;;;6215474;23;20453;-87
2021/03/10 00:02:45;;;;;;;17.27;14.18;;;5.10;92.40;;;;;;6215239;23;20337;-87
2021/03/10 00:05:12;;;;;;;16.58;14.02;;;5.10;92.30;;;;;;6214528;23;20012;-87
2021/03/10 00:07:38;;;;;;;17.42;14.35;;;5.10;92.30;;;;;;6214809;23;20016;-86
2021/03/10 00:10:10;;;;;;;15.32;13.05;;;5.10;92.40;;;;;;6215884;23;20017;-87
2021/03/10 00:12:37;;;;;;;17.05;14.32;;;5.10;92.40;;;;;;6215764;23;20021;-87
2021/03/10 00:15:26;;;;;;;17.40;14.45;;;5.10;92.40;;;;;;6214910;23;20020;-87
2021/03/10 00:17:52;;;;;;;16.70;14.07;;;5.10;92.40;;;;;;6216553;23;20020;-88
2021/03/10 00:20:21;;;;;;;17.83;14.75;;;5.10;92.40;;;;;;6217029;23;20023;-88
2021/03/10 00:22:49;;;;;;;17.13;14.27;;;5.10;92.50;;;;;;6215435;23;20138;-87
2021/03/10 00:25:29;;;;;;;17.17;13.23;;;5.00;92.40;;;;;;6215667;23;20341;-88
2021/03/10 00:27:54;;;;;;;15.75;13.18;;;5.00;92.40;;;;;;6216594;23;20089;-87
2021/03/10 00:30:24;;;;;;;16.77;14.15;;;5.00;92.30;;;;;;6214981;23;20441;-87
2021/03/10 00:32:50;;;;;;;16.88;14.15;;;5.00;92.40;;;;;;6215863;23;20040;-87
2021/03/10 00:35:46;;;;;;;17.50;14.57;;;5.00;92.40;;;;;;6215963;23;20017;-87
2021/03/10 00:38:12;;;;;;;16.25;13.43;;;5.00;92.30;;;;;;6186619;23;20016;-87
2021/03/10 00:40:37;;;;;;;16.10;13.77;;;5.00;92.40;;;;;;6245175;23;20019;-87
2021/03/10 00:43:03;;;;;;;17.95;14.73;;;5.00;92.40;;;;;;6245042;23;20039;-87
2021/03/10 00:45:30;;;;;;;15.30;13.07;;;5.00;92.70;;;;;;6230163;23;20020;-87
2021/03/10 00:47:57;;;;;;;17.05;14.05;;;5.00;92.40;;;;;;6245747;23;20043;-86
2021/03/10 00:50:42;;;;;;;17.05;14.65;;;5.00;92.40;;;;;;6244523;23;20016;-87
2021/03/10 00:53:07;;;;;;;17.17;14.23;;;4.90;92.30;;;;;;6245330;23;20322;-86
2021/03/10 00:55:33;;;;;;;16.08;13.40;;;4.90;92.40;;;;;;6245269;23;20087;-87
2021/03/10 00:57:59;;;;;;;15.75;13.00;;;4.90;92.30;;;;;;6245036;23;20324;-87
2021/03/10 01:01:16;;;;;;;15.20;13.00;;;4.90;92.40;;;;;;6244785;23;20047;-86
2021/03/10 01:03:41;;;;;;;17.50;13.77;;;4.90;92.40;;;;;;6152727;23;20025;-86
2021/03/10 01:06:23;;;;;;;17.60;14.07;;;4.90;92.40;;;;;;6163138;23;20017;-86
2021/03/10 01:08:50;;;;;;;15.50;12.85;;;4.90;92.50;;;;;;6245241;23;20024;-88
2021/03/10 01:14:08;;;;;;;17.85;14.65;;;4.80;92.10;;;;;;6246643;23;20078;-87
2021/03/10 01:16:34;;;;;;;15.75;13.50;;;4.80;92.10;;;;;;6248241;23;20441;-89
2021/03/10 01:19:52;;;;;;;17.83;13.70;;;4.80;92.20;;;;;;6245181;23;20016;-87
2021/03/10 01:23:02;;;;;;;17.00;13.75;;;4.70;92.20;;;;;;6228193;23;20020;-87
2021/03/10 01:25:54;;;;;;;17.35;13.70;;;4.70;92.10;;;;;;6244638;23;20020;-87
2021/03/10 01:28:20;;;;;;;18.92;14.82;;;4.60;91.90;;;;;;6233668;23;20020;-88
2021/03/10 01:30:46;;;;;;;18.42;14.60;;;4.60;91.90;;;;;;6245566;23;20361;-87
2021/03/10 01:33:14;;;;;;;16.60;13.57;;;4.60;92.00;;;;;;6244339;23;20027;-87
2021/03/10 01:35:40;;;;;;;17.73;14.23;;;4.60;91.90;;;;;;6245220;23;20467;-87
2021/03/10 01:38:11;;;;;;;17.38;14.15;;;4.60;92.10;;;;;;6244458;23;20016;-88
2021/03/10 01:40:43;;;;;;;18.85;15.65;;;4.60;92.20;;;;;;6244562;23;20329;-88
2021/03/10 01:43:48;;;;;;;18.98;15.45;;;4.60;92.20;;;;;;6244944;23;20046;-87
2021/03/10 01:46:41;;;;;;;19.98;14.98;;;4.60;92.30;;;;;;6243096;23;20012;-88
2021/03/10 01:49:14;;;;;;;17.40;14.23;;;4.60;92.40;;;;;;6245463;23;20016;-88
2021/03/10 01:52:00;;;;;;;17.85;14.07;;;4.60;92.30;;;;;;6245213;23;20016;-88
2021/03/10 01:54:26;;;;;;;17.55;13.68;;;4.60;92.30;;;;;;6244416;23;20325;-88
2021/03/10 01:56:54;;;;;;;16.80;13.65;;;4.60;92.30;;;;;;6245120;23;20022;-88
2021/03/10 01:59:41;;;;;;;20.40;15.10;;;4.60;92.30;;;;;;6245035;23;20020;-88
2021/03/10 02:02:19;;;;;;;18.80;14.85;;;4.60;92.20;;;;;;6244836;23;20008;-87
2021/03/10 02:04:47;;;;;;;19.80;15.48;;;4.50;92.40;;;;;;6246169;23;20038;-87
2021/03/10 02:07:57;;;;;;;19.08;15.05;;;4.50;92.30;;;;;;6246370;23;20446;-88
2021/03/10 02:10:47;;;;;;;17.35;14.00;;;4.50;92.40;;;;;;6215258;23;20027;-87
2021/03/10 02:13:38;;;;;;;18.67;14.88;;;4.50;92.40;;;;;;6246772;23;20014;-88
2021/03/10 02:16:41;;;;;;;20.35;15.77;;;4.50;92.40;;;;;;6247480;23;20024;-88
2021/03/10 02:20:15;;;;;;;18.77;14.98;;;4.50;92.40;;;;;;6248057;23;20023;-88
2021/03/10 02:26:14;;;;;;;17.65;14.65;;;4.50;92.40;;;;;;6213352;23;20084;-85
2021/03/10 02:28:57;;;;;;;20.63;15.38;;;4.50;92.50;;;;;;6216584;23;20087;-86
2021/03/10 02:31:24;;;;;;;19.48;15.40;;;4.50;92.50;;;;;;6216723;23;20012;-88
2021/03/10 02:33:51;;;;;;;17.42;14.07;;;4.50;92.50;;;;;;6216807;23;20020;-87
2021/03/10 02:36:37;;;;;;;19.75;16.05;;;4.50;92.50;;;;;;6215700;23;20044;-88
2021/03/10 02:39:07;;;;;;;19.77;14.88;;;4.50;92.50;;;;;;6216888;23;20016;-88
2021/03/10 02:41:33;;;;;;;21.08;16.90;;;4.50;92.60;;;;;;6216541;23;20023;-88
2021/03/10 02:44:13;;;;;;;19.13;14.70;;;4.50;92.60;;;;;;6215709;23;20386;-88
2021/03/10 02:46:45;;;;;;;19.67;15.45;;;4.50;92.60;;;;;;6215951;23;20311;-89
2021/03/10 02:49:18;;;;;;;19.50;15.10;;;4.50;92.50;;;;;;6216060;23;20575;-88
2021/03/10 02:51:45;;;;;;;20.85;16.38;;;4.50;92.60;;;;;;6215238;23;20469;-88
2021/03/10 02:54:32;;;;;;;19.13;15.43;;;4.40;92.60;;;;;;6215736;23;20048;-88
2021/03/10 02:56:58;;;;;;;19.98;15.45;;;4.50;92.70;;;;;;6215444;23;20016;-87
2021/03/10 02:59:34;;;;;;;19.77;14.77;;;4.50;92.60;;;;;;6215935;23;20511;-87
2021/03/10 03:02:13;;;;;;;18.98;14.77;;;4.50;92.70;;;;;;6216239;23;20445;-87
2021/03/10 03:04:57;;;;;;;19.20;15.23;;;4.50;92.60;;;;;;6215239;23;20020;-88
2021/03/10 03:07:23;;;;;;;19.48;14.65;;;4.40;92.60;;;;;;6215175;23;20397;-87
2021/03/10 03:09:49;;;;;;;17.33;12.75;;;4.40;92.50;;;;;;6216332;23;20016;-87
2021/03/10 03:12:16;;;;;;;20.23;15.10;;;4.40;92.80;;;;;;6215438;23;20027;-88
2021/03/10 03:15:01;;;;;;;19.00;14.57;;;4.40;92.50;;;;;;6216104;23;20013;-88
2021/03/10 03:17:53;;;;;;;19.58;14.63;;;4.40;92.60;;;;;;6215430;23;20017;-87
2021/03/10 03:20:27;;;;;;;19.65;15.52;;;4.40;92.50;;;;;;6215721;23;20020;-85
2021/03/10 03:22:55;;;;;;;19.10;14.95;;;4.30;92.60;;;;;;6215493;23;20394;-85
2021/03/10 03:25:37;;;;;;;20.95;16.25;;;4.30;92.60;;;;;;6214258;23;20025;-87
2021/03/10 03:28:13;;;;;;;19.13;15.07;;;4.30;92.70;;;;;;6215497;23;20023;-85
2021/03/10 03:30:43;;;;;;;19.95;15.40;;;4.30;92.70;;;;;;6215798;23;20047;-87
2021/03/10 03:33:22;;;;;;;20.83;15.63;;;4.30;92.70;;;;;;6214741;23;20078;-88
2021/03/10 03:35:51;;;;;;;20.23;15.60;;;4.30;92.80;;;;;;6215910;23;20461;-85
2021/03/10 03:38:19;;;;;;;19.60;15.35;;;4.30;92.80;;;;;;6215888;23;20019;-85
2021/03/10 03:40:47;;;;;;;18.30;15.02;;;4.30;92.80;;;;;;6214808;23;20017;-85
2021/03/10 03:43:16;;;;;;;21.90;15.77;;;4.30;92.80;;;;;;6215578;23;20074;-85
2021/03/10 03:45:45;;;;;;;18.00;14.68;;;4.20;92.70;;;;;;6215224;23;20059;-85
2021/03/10 03:48:18;;;;;;;19.73;15.65;;;4.30;92.70;;;;;;6215681;23;20103;-85
2021/03/10 03:50:44;;;;;;;18.60;15.05;;;4.30;92.80;;;;;;6216019;23;20051;-85
2021/03/10 03:53:19;;;;;;;19.30;15.32;;;4.30;92.60;;;;;;6214166;23;20017;-86
2021/03/10 03:55:45;;;;;;;18.55;14.50;;;4.30;92.70;;;;;;6215520;23;20453;-85
2021/03/10 03:58:13;;;;;;;18.70;14.65;;;4.20;92.60;;;;;;6215682;23;20066;-88
2021/03/10 04:00:39;;;;;;;20.90;16.23;;;4.20;92.60;;;;;;6215127;23;20023;-87
2021/03/10 04:03:17;;;;;;;19.48;14.77;;;4.20;92.60;;;;;;6215717;23;20017;-85
2021/03/10 04:05:48;;;;;;;18.77;14.95;;;4.20;92.60;;;;;;6215805;23;20016;-85
2021/03/10 04:08:20;;;;;;;19.88;16.02;;;4.20;92.60;;;;;;6214378;23;20017;-86
2021/03/10 04:11:00;;;;;;;19.38;15.13;;;4.20;92.60;;;;;;6215946;23;20020;-85
2021/03/10 04:13:49;;;;;;;19.08;15.13;;;4.20;92.70;;;;;;6215381;23;20102;-85
2021/03/10 04:20:24;;;;;;;19.48;14.93;;;4.10;92.60;;;;;;6239458;23;20023;-85
2021/03/10 04:22:52;;;;;;;19.33;14.70;;;4.10;92.70;;;;;;6245218;23;20020;-86
2021/03/10 04:28:23;;;;;;;18.60;14.82;;;4.10;92.70;;;;;;6244230;23;20471;-85
2021/03/10 04:30:49;;;;;;;19.92;15.13;;;4.00;92.60;;;;;;6245917;23;20039;-85
2021/03/10 04:33:29;;;;;;;18.95;14.77;;;4.00;92.60;;;;;;6246023;23;20027;-85
2021/03/10 04:36:05;;;;;;;19.05;14.93;;;4.00;92.60;;;;;;6245401;23;20046;-86
2021/03/10 04:39:19;;;;;;;21.25;15.82;;;3.90;92.60;;;;;;6245547;23;20016;-85
2021/03/10 04:42:00;;;;;;;17.35;14.02;;;3.90;92.70;;;;;;6229983;23;20020;-85
2021/03/10 04:44:34;;;;;;;18.33;14.65;;;3.90;92.40;;;;;;6245281;23;20020;-85
2021/03/10 04:47:12;;;;;;;21.40;16.00;;;3.80;92.40;;;;;;6245717;23;20016;-85
2021/03/10 04:49:44;;;;;;;21.00;15.77;;;3.90;92.40;;;;;;6244944;23;20314;-85
2021/03/10 04:52:21;;;;;;;20.20;15.85;;;3.80;92.50;;;;;;6244944;23;20043;-85
2021/03/10 04:54:46;;;;;;;17.45;13.73;;;3.80;92.60;;;;;;6245740;23;20020;-85
2021/03/10 04:57:18;;;;;;;21.52;15.75;;;3.80;92.50;;;;;;6244126;23;20023;-86
2021/03/10 04:59:59;;;;;;;19.90;14.73;;;3.80;92.40;;;;;;6245564;23;20020;-85
2021/03/10 05:02:31;;;;;;;19.60;15.70;;;3.80;92.30;;;;;;6244898;23;20433;-86
2021/03/10 05:04:57;;;;;;;20.77;16.25;;;3.70;92.30;;;;;;6245128;23;20044;-85
2021/03/10 05:07:34;;;;;;;17.00;13.45;;;3.70;92.30;;;;;;6245687;23;20310;-85
2021/03/10 05:10:02;;;;;;;20.30;14.95;;;3.70;92.30;;;;;;6245665;23;20016;-86
2021/03/10 05:12:45;;;;;;;22.77;16.02;;;3.70;92.30;;;;;;6245696;23;20012;-86
2021/03/10 05:15:17;;;;;;;19.92;15.98;;;3.70;92.30;;;;;;6244599;23;20411;-85
2021/03/10 05:17:47;;;;;;;24.00;17.52;;;3.70;92.40;;;;;;6244967;23;20016;-85
2021/03/10 05:20:12;;;;;;;20.95;15.45;;;3.60;92.40;;;;;;6245423;23;20087;-85
2021/03/10 05:22:47;;;;;;;19.50;16.08;;;3.60;92.50;;;;;;6245465;23;20035;-85
2021/03/10 05:25:14;;;;;;;20.13;15.40;;;3.60;92.90;;;;;;6244337;23;20024;-85
2021/03/10 05:27:43;;;;;;;19.60;15.38;;;3.60;92.30;;;;;;6244997;23;20099;-85
2021/03/10 05:30:37;;;;;;;21.15;15.82;;;3.60;92.20;;;;;;6245298;23;20016;-86
2021/03/10 05:36:23;;;;;;;23.80;16.85;;;3.50;92.40;;;;;;6245327;23;20121;-85
2021/03/10 05:38:53;;;;;;;20.95;15.65;;;3.50;92.50;;;;;;6246035;23;20020;-85
2021/03/10 05:41:25;;;;;;;22.27;17.48;;;3.50;92.40;;;;;;6246491;23;20023;-86
2021/03/10 05:44:30;;;;;;;21.45;16.38;;;3.50;92.40;;;;;;6247298;23;20023;-85
2021/03/10 05:47:44;;;;;;;21.17;16.42;;;3.50;92.40;;;;;;6198985;23;20012;-85
2021/03/10 05:49:53;;;;;;;24.20;17.35;;;3.50;92.30;;;;;;6232846;23;20043;-86
2021/03/10 05:55:55;;;;;;;23.40;17.02;;;3.50;92.50;;;;;;6181459;23;20055;-86
2021/03/10 06:10:11;;;;;;;25.27;18.38;;;3.50;92.30;;;;;;6225407;22;20058;-86
2021/03/10 06:12:45;;;;;;;23.60;17.45;;;3.50;92.20;;;;;;6215479;23;20028;-86
2021/03/10 06:16:00;;;;;;;21.30;16.90;;;3.50;92.30;;;;;;6214983;23;20043;-87
2021/03/10 06:18:45;;;;;;;21.35;16.67;;;3.50;92.20;;;;;;6216567;23;20072;-86
2021/03/10 06:21:52;;;;;;;23.92;17.60;;;3.50;92.20;;;;;;6215489;23;20515;-87
2021/03/10 06:24:33;;;;;;;23.40;18.13;;;3.50;92.20;;;;;;6216078;23;20043;-87
2021/03/10 06:27:02;;;;;;;24.60;17.92;;;3.50;92.10;;;;;;6216167;23;20019;-86
2021/03/10 06:30:01;;;;;;;24.73;18.20;;;3.50;92.20;;;;;;6143963;23;20373;-87
2021/03/10 06:32:47;;;;;;;23.25;17.88;;;3.60;92.10;;;;;;6216551;23;20020;-87
2021/03/10 06:35:27;;;;;;;24.45;17.85;;;3.60;92.10;;;;;;6216255;23;20104;-89
2021/03/10 06:38:18;;;;;;;24.10;19.00;;;3.50;92.20;;;;;;6217312;23;20023;-91
2021/03/10 06:41:46;;;;;;;23.73;18.40;;;3.60;92.30;;;;;;6217648;23;20017;-86
2021/03/10 06:44:30;;;;;;;24.52;18.73;;;3.50;92.30;;;;;;6158491;23;20048;-86
2021/03/10 06:47:22;;;;;;;24.38;19.33;;;3.50;92.30;;;;;;6211898;23;20058;-86
2021/03/10 06:49:54;;;;;;;23.60;18.98;;;3.50;92.30;;;;;;6093050;23;20097;-86
2021/03/10 06:56:27;;;;;;;24.98;18.92;;;3.60;92.30;;;;;;6094415;23;20484;-88
2021/03/10 07:05:19;;;;;;;25.70;18.48;;;3.60;92.20;;;;;;6248589;23;20012;-91
2021/03/10 07:07:52;;;;;;;25.45;18.67;;;3.60;92.20;;;;;;6248088;23;20020;-88
2021/03/10 07:10:19;;;;;;;25.13;18.67;;;3.60;92.20;;;;;;6246742;23;20012;-86
2021/03/10 07:12:45;;;;;;;26.45;19.55;;;3.60;92.50;;;;;;6236861;23;20498;-85
2021/03/10 07:15:12;;;;;;;24.00;18.23;;;3.60;92.20;;;;;;6234762;23;20012;-85
2021/03/10 07:17:39;;;;;;;27.52;20.08;;;3.60;92.30;;;;;;6239427;23;20031;-86
2021/03/10 07:20:06;;;;;;;27.02;18.50;;;3.60;92.30;;;;;;6245204;23;20020;-86
2021/03/10 07:22:57;;;;;;;26.48;19.80;;;3.60;92.30;;;;;;6245176;23;20019;-86
2021/03/10 07:25:32;;;;;;;26.02;19.02;;;3.60;92.40;;;;;;6244265;23;20368;-85
2021/03/10 07:28:02;;;;;;;27.00;19.13;;;3.70;92.40;;;;;;6246040;23;20020;-86
2021/03/10 07:30:39;;;;;;;25.00;19.38;;;3.70;92.40;;;;;;6245739;23;20016;-85
2021/03/10 07:33:05;;;;;;;24.90;18.35;;;3.70;92.40;;;;;;6241570;23;20031;-85
2021/03/10 07:35:31;;;;;;;24.98;18.45;;;3.70;92.30;;;;;;6244449;23;20069;-86
2021/03/10 07:37:57;;;;;;;25.73;18.65;;;3.70;92.30;;;;;;6236782;23;20091;-87
2021/03/10 07:40:23;;;;;;;28.20;18.92;;;3.70;92.20;;;;;;6243257;23;20024;-85
2021/03/10 07:42:56;;;;;;;25.90;18.80;;;3.70;92.20;;;;;;6244964;23;20032;-86
2021/03/10 07:45:43;;;;;;;24.17;18.35;;;3.80;92.30;;;;;;6244503;23;20081;-85
2021/03/10 07:48:09;;;;;;;25.52;18.45;;;3.80;92.20;;;;;;6244893;23;20020;-85
2021/03/10 07:50:44;;;;;;;27.05;18.98;;;3.80;92.10;;;;;;6245841;23;20016;-85
2021/03/10 07:53:12;;;;;;;26.42;19.35;;;3.80;92.10;;;;;;6240079;23;20024;-86
2021/03/10 07:55:45;;;;;;;29.13;20.15;;;3.80;92.10;;;;;;6236313;23;20062;-83
2021/03/10 07:58:12;;;;;;;25.77;18.80;;;3.80;92.20;;;;;;6244867;23;20023;-84
2021/03/10 08:00:44;;;;;;;25.90;19.15;;;3.90;92.10;;;;;;6243397;23;20483;-84
2021/03/10 08:03:27;;;;;;;28.80;18.38;;;3.90;92.20;;;;;;6245393;23;20051;-84
2021/03/10 08:06:25;;;;;;;27.40;19.20;;;3.90;92.20;;;;;;6245263;23;20075;-84
2021/03/10 08:08:50;;;;;;;25.75;17.55;;;3.90;92.20;;;;;;6239751;23;20020;-86
2021/03/10 08:11:22;;;;;;;25.63;18.50;;;3.90;92.10;;;;;;6244226;23;20016;-85
2021/03/10 08:13:59;;;;;;;37.97;27.33;;;4.00;92.20;;;;;;6244182;23;20504;-84
2021/03/10 08:16:25;;;;;;;27.92;20.08;;;4.00;92.10;;;;;;6244772;23;20027;-84
2021/03/10 08:18:51;;;;;;;35.35;23.60;;;4.00;92.10;;;;;;6245105;23;20026;-85
2021/03/10 08:21:19;;;;;;;52.78;31.58;;;4.00;92.20;;;;;;6244090;23;20111;-85
2021/03/10 08:23:46;;;;;;;33.00;22.05;;;4.10;92.10;;;;;;6245425;23;20027;-85
2021/03/10 08:26:26;;;;;;;36.90;23.42;;;4.10;92.10;;;;;;6243071;23;20515;-86
2021/03/10 08:29:45;;;;;;;34.30;23.27;;;4.10;92.00;;;;;;6244232;23;20471;-84
2021/03/10 08:32:42;;;;;;;29.58;20.75;;;4.10;92.10;;;;;;6244877;23;20491;-85
2021/03/10 08:45:39;;;;;;;28.60;20.05;;;4.20;92.00;;;;;;6210490;23;20028;-86
2021/03/10 08:48:51;;;;;;;28.90;19.95;;;4.20;92.00;;;;;;6213699;23;20043;-85
2021/03/10 08:51:35;;;;;;;26.58;19.08;;;4.30;91.90;;;;;;6214228;23;20322;-85
2021/03/10 08:54:19;;;;;;;28.83;19.55;;;4.30;91.90;;;;;;6166392;23;20028;-91
2021/03/10 08:56:50;;;;;;;28.60;19.50;;;4.30;91.80;;;;;;6211816;23;20024;-87
2021/03/10 09:00:16;;;;;;;29.88;20.33;;;4.40;91.90;;;;;;6215654;23;20066;-87
2021/03/10 09:02:51;;;;;;;31.92;20.50;;;4.40;91.90;;;;;;6113473;23;20142;-85
2021/03/10 09:05:47;;;;;;;30.50;21.52;;;4.40;91.90;;;;;;6122498;23;20018;-85
2021/03/10 09:08:31;;;;;;;31.75;21.05;;;4.50;92.00;;;;;;6212096;23;20024;-89
2021/03/10 09:11:03;;;;;;;30.88;21.30;;;4.50;91.90;;;;;;6214870;23;20446;-88
2021/03/10 09:13:32;;;;;;;30.75;21.70;;;4.50;91.90;;;;;;6215134;23;20455;-88
2021/03/10 09:16:10;;;;;;;30.30;21.10;;;4.60;91.90;;;;;;6217309;23;20105;-89
2021/03/10 09:18:36;;;;;;;34.05;22.50;;;4.60;91.90;;;;;;6216639;23;20024;-88
2021/03/10 09:21:02;;;;;;;31.15;21.67;;;4.70;91.90;;;;;;6217384;23;20028;-87
2021/03/10 09:23:46;;;;;;;32.88;21.67;;;4.70;91.90;;;;;;6216064;23;20043;-86
2021/03/10 09:26:14;;;;;;;36.38;24.48;;;4.70;91.80;;;;;;6216123;23;20450;-87
2021/03/10 09:28:59;;;;;;;35.45;24.55;;;4.80;91.90;;;;;;6216596;23;20119;-86
2021/03/10 09:31:54;;;;;;;34.10;22.92;;;4.80;91.90;;;;;;6216058;23;20013;-87
2021/03/10 09:34:33;;;;;;;37.38;23.90;;;4.90;91.90;;;;;;6130979;23;20395;-87
2021/03/10 09:37:15;;;;;;;30.50;22.58;;;4.90;91.80;;;;;;6213017;23;20093;-86
2021/03/10 09:39:49;;;;;;;32.88;22.63;;;5.00;91.80;;;;;;6210785;23;20020;-86
2021/03/10 09:42:21;;;;;;;;;;;5.00;91.80;;;;;;6216451;23;20457;-86
2021/03/10 09:44:49;;;;;;;37.15;25.52;;;5.00;91.80;;;;;;6216004;23;19954;-87
2021/03/10 09:47:58;;;;;;;34.53;24.13;;;5.10;91.90;;;;;;6216513;23;20020;-86
2021/03/10 09:50:48;;;;;;;36.47;24.25;;;5.20;91.80;;;;;;6208420;23;20016;-89
2021/03/10 09:53:42;;;;;;;36.20;23.90;;;5.20;91.90;;;;;;6218333;23;20044;-87
2021/03/10 09:56:13;;;;;;;37.63;25.13;;;5.20;91.80;;;;;;6217100;23;20016;-88
2021/03/10 10:02:50;;;;;;;34.80;24.65;;;5.30;91.80;;;;;;6214327;23;20460;-90
2021/03/10 10:05:47;;;;;;;38.40;25.38;;;5.40;91.70;;;;;;6216302;23;20013;-90
2021/03/10 10:08:26;;;;;;;36.88;25.92;;;5.40;91.80;;;;;;6217089;23;20082;-91
2021/03/10 10:10:52;;;;;;;36.35;25.08;;;5.50;91.70;;;;;;6217610;23;20013;-90
2021/03/10 10:14:07;;;;;;;35.70;25.48;;;5.50;91.60;;;;;;6215218;23;20100;-90
2021/03/10 10:20:48;;;;;;;37.05;25.00;;;5.60;91.70;;;;;;6123655;23;20049;-88
2021/03/10 10:23:24;;;;;;;32.70;24.73;;;5.60;91.60;;;;;;6072896;23;20071;-88
2021/03/10 10:28:55;;;;;;;63.90;36.67;;;5.70;91.60;;;;;;6213639;23;20025;-87
2021/03/10 10:31:44;;;;;;;34.42;23.88;;;5.70;91.70;;;;;;6216413;23;20331;-87
2021/03/10 10:34:42;;;;;;;36.70;26.10;;;5.70;91.50;;;;;;6209654;23;20103;-89
2021/03/10 10:37:40;;;;;;;;;;;;;;;;;;;;;
2021/03/10 10:41:25;;;;;;;36.00;24.67;;;5.80;91.50;;;;;;6211313;23;20013;-89
2021/03/10 10:43:53;;;;;;;41.78;26.75;;;5.80;91.60;;;;;;6106743;23;20034;-91
2021/03/10 10:46:48;;;;;;;37.30;26.00;;;5.80;91.50;;;;;;6124907;23;20096;-90
2021/03/10 10:49:32;;;;;;;40.72;27.75;;;5.90;91.50;;;;;;6105278;23;20061;-89
2021/03/10 10:51:57;;;;;;;39.83;27.73;;;5.90;91.60;;;;;;6121351;23;20489;-88
2021/03/10 10:54:24;;;;;;;37.70;27.10;;;6.00;91.60;;;;;;6137548;23;20041;-90
2021/03/10 10:57:02;;;;;;;37.95;26.70;;;6.00;91.50;;;;;;6216576;23;20025;-91
2021/03/10 10:59:43;;;;;;;37.75;27.15;;;6.10;91.50;;;;;;6216768;23;20472;-88
2021/03/10 11:02:15;;;;;;;41.75;28.30;;;6.10;91.50;;;;;;6214803;23;20020;-85
2021/03/10 11:04:40;;;;;;;39.63;26.35;;;6.10;91.50;;;;;;6216389;23;20071;-83
2021/03/10 11:07:06;;;;;;;38.00;27.42;;;6.10;91.50;;;;;;6216053;23;20025;-89
2021/03/10 11:09:37;;;;;;;40.22;27.70;;;6.20;91.40;;;;;;6214428;23;20032;-87
2021/03/10 11:12:03;;;;;;;41.45;29.40;;;6.20;91.50;;;;;;6215861;23;20094;-88
2021/03/10 11:14:32;;;;;;;36.90;26.00;;;6.20;91.50;;;;;;6215258;23;20074;-88
2021/03/10 11:16:58;;;;;;;41.30;27.45;;;6.30;91.40;;;;;;6214810;23;20017;-86
2021/03/10 11:19:24;;;;;;;40.50;27.92;;;6.30;91.40;;;;;;6214452;23;20079;-84
2021/03/10 11:21:50;;;;;;;41.72;28.20;;;6.30;91.40;;;;;;6207305;23;20028;-82
2021/03/10 11:24:17;;;;;;;41.00;27.70;;;6.40;91.40;;;;;;6213589;23;20016;-84
2021/03/10 11:26:43;;;;;;;40.42;27.35;;;6.40;91.40;;;;;;6215798;23;20016;-84
2021/03/10 11:29:10;;;;;;;39.03;26.30;;;6.40;91.30;;;;;;6215462;23;20030;-85
2021/03/10 11:31:36;;;;;;;39.25;26.58;;;6.40;91.30;;;;;;6214582;23;20017;-86
2021/03/10 11:34:19;;;;;;;38.00;26.73;;;6.50;91.30;;;;;;6215342;23;20338;-85
2021/03/10 11:37:11;;;;;;;38.90;26.63;;;6.50;91.20;;;;;;6214753;23;20472;-83
2021/03/10 11:39:43;;;;;;;42.53;28.10;;;6.50;91.20;;;;;;6214908;23;20017;-83
2021/03/10 11:42:21;;;;;;;40.83;26.83;;;6.60;91.20;;;;;;6215604;23;20012;-86
2021/03/10 11:44:46;;;;;;;39.33;27.55;;;6.60;91.00;;;;;;6214547;23;20017;-83
2021/03/10 11:47:20;;;;;;;36.40;26.15;;;6.60;91.20;;;;;;6215123;23;20441;-84
2021/03/10 11:49:51;;;;;;;37.83;26.65;;;6.60;91.10;;;;;;6215343;23;20021;-85
2021/03/10 11:52:17;;;;;;;40.50;26.73;;;6.60;91.10;;;;;;6213555;23;20009;-84
2021/03/10 11:54:47;;;;;;;36.65;25.75;;;6.70;91.10;;;;;;6214736;23;20044;-84
2021/03/10 11:57:13;;;;;;;38.22;26.25;;;6.70;91.00;;;;;;6215055;23;20021;-84
2021/03/10 12:00:07;;;;;;;39.80;25.50;;;6.80;91.10;;;;;;6204137;23;20110;-83
2021/03/10 12:02:48;;;;;;;37.40;25.85;;;6.80;91.00;;;;;;6215321;23;20128;-85
2021/03/10 12:05:15;;;;;;;35.90;25.05;;;6.80;90.90;;;;;;6206630;23;20055;-84
2021/03/10 12:07:53;;;;;;;35.92;25.17;;;6.80;90.90;;;;;;6214637;23;20028;-85
2021/03/10 12:10:25;;;;;;;34.72;24.52;;;6.90;90.80;;;;;;6214574;23;20017;-84
2021/03/10 12:15:55;;;;;;;36.90;24.83;;;6.90;90.60;;;;;;6209310;23;20044;-84
2021/03/10 12:34:35;;;;;;;35.47;23.98;;;7.10;90.40;;;;;;6145353;23;21171;-88
2021/03/10 12:57:29;;;;;;;35.90;25.45;;;7.20;90.20;;;;;;6155254;23;20484;-87
2021/03/10 13:00:17;;;;;;;33.85;24.60;;;7.20;90.20;;;;;;6156772;23;20470;-85
2021/03/10 13:17:35;;;;;;;34.70;24.88;;;7.40;89.80;;;;;;6243900;23;20050;-83
2021/03/10 13:20:55;;;;;;;;;;;;;;;;;;;;;
2021/03/10 13:24:23;;;;;;;33.75;24.33;;;7.40;89.70;;;;;;6123638;23;20021;-89
2021/03/10 13:53:51;;;;;;;33.40;23.83;;;7.50;89.50;;;;;;5924673;24;20053;-90
2021/03/10 14:00:48;;;;;;;35.03;25.17;;;7.50;89.10;;;;;;6129373;23;20044;-92
2021/03/10 14:03:16;;;;;;;33.17;23.27;;;7.50;89.10;;;;;;6133087;23;20049;-90
2021/03/10 14:05:42;;;;;;;31.38;23.80;;;7.60;89.20;;;;;;6129194;23;20124;-94
2021/03/10 14:08:57;;;;;;;;;;;;;;;;;;;;;
2021/03/10 14:19:47;;;;;;;32.65;23.10;;;7.60;88.10;;;;;;6128084;23;20017;-92
2021/03/10 14:52:01;;;;;;;;;;;;;;;;;;;;;
2021/03/10 14:55:35;;;;;;;32.45;22.33;;;7.70;86.70;;;;;;5893878;24;20771;-88
2021/03/10 15:06:26;;;;;;;36.60;22.33;;;7.70;86.30;;;;;;5987208;23;20068;-86
2021/03/10 15:08:53;;;;;;;30.42;23.23;;;7.70;87.40;;;;;;6120144;23;20037;-88
2021/03/10 15:11:21;;;;;;;29.20;21.80;;;7.70;86.80;;;;;;6116066;23;20461;-88
2021/03/10 15:13:55;;;;;;;32.50;22.40;;;7.70;86.90;;;;;;6125445;23;20018;-87
2021/03/10 15:16:21;;;;;;;32.03;22.98;;;7.70;86.80;;;;;;6125413;23;20025;-87
2021/03/10 15:18:49;;;;;;;29.90;21.73;;;7.70;86.90;;;;;;6126245;23;20022;-88
2021/03/10 15:21:21;;;;;;;32.58;22.90;;;7.70;87.00;;;;;;6126416;23;20041;-88
2021/03/10 15:23:46;;;;;;;30.08;21.95;;;7.70;87.30;;;;;;6125543;23;20495;-87
2021/03/10 15:26:56;;;;;;;30.60;21.63;;;7.70;87.10;;;;;;6125982;23;20037;-84
2021/03/10 15:29:57;;;;;;;31.10;22.17;;;7.70;87.30;;;;;;6011537;23;20369;-87
2021/03/10 15:32:49;;;;;;;30.08;21.75;;;7.70;87.50;;;;;;6038929;23;20022;-86
2021/03/10 15:35:41;;;;;;;29.95;22.08;;;7.70;87.70;;;;;;6037004;23;20067;-88
2021/03/10 15:38:08;;;;;;;33.05;22.55;;;7.70;87.60;;;;;;6032674;23;20070;-87
2021/03/10 15:46:44;;;;;;;34.53;23.17;;;7.70;88.30;;;;;;6237120;22;20074;-85
2021/03/10 15:50:04;;;;;;;;;;;;;;;;;;;;;
2021/03/10 15:53:55;;;;;;;34.03;22.92;;;7.70;88.40;;;;;;6156337;22;20161;-85
2021/03/10 15:57:44;;;;;;;33.38;22.63;;;7.60;88.40;;;;;;6214618;23;20107;-86
2021/03/10 16:00:19;;;;;;;35.03;22.20;;;7.60;88.40;;;;;;6214826;23;20082;-86
2021/03/10 16:02:54;;;;;;;32.85;21.45;;;7.60;88.70;;;;;;6214553;23;20500;-86
2021/03/10 16:05:23;;;;;;;29.70;21.52;;;7.60;88.40;;;;;;6213486;23;20012;-86
2021/03/10 16:07:50;;;;;;;32.45;22.40;;;7.60;88.50;;;;;;6214719;23;20472;-86
2021/03/10 16:10:34;;;;;;;32.00;21.75;;;7.60;88.50;;;;;;6214688;23;20047;-86
2021/03/10 16:13:01;;;;;;;29.58;21.05;;;7.60;88.50;;;;;;6209991;23;20051;-86
2021/03/10 16:15:42;;;;;;;32.65;22.45;;;7.60;88.90;;;;;;6214989;23;20043;-85
2021/03/10 16:18:15;;;;;;;27.95;21.17;;;7.60;88.70;;;;;;6215782;23;20036;-88
2021/03/10 16:20:46;;;;;;;27.67;20.73;;;7.60;88.70;;;;;;6216644;23;20021;-86
2021/03/10 16:23:21;;;;;;;34.95;23.00;;;7.60;89.10;;;;;;6219914;23;20488;-88
2021/03/10 16:25:59;;;;;;;32.88;23.02;;;7.60;88.90;;;;;;6216835;23;20071;-92
2021/03/10 16:28:25;;;;;;;33.65;22.80;;;7.60;88.80;;;;;;6216064;23;20098;-88
2021/03/10 16:30:51;;;;;;;31.58;20.85;;;7.60;89.00;;;;;;6215985;23;20012;-90
2021/03/10 16:33:32;;;;;;;34.13;21.67;;;7.60;89.00;;;;;;6213820;23;20495;-87
2021/03/10 16:40:24;;;;;;;33.50;22.35;;;7.60;89.20;;;;;;6206098;23;20028;-90
2021/03/10 16:43:04;;;;;;;29.20;21.88;;;7.50;89.40;;;;;;6214023;23;20021;-88
2021/03/10 16:45:31;;;;;;;30.45;21.67;;;7.50;89.40;;;;;;6213770;23;20020;-88
2021/03/10 16:48:15;;;;;;;26.70;19.50;;;7.50;89.40;;;;;;6212908;23;20017;-88
2021/03/10 16:50:41;;;;;;;29.50;19.13;;;7.50;89.20;;;;;;6242515;23;20314;-88
2021/03/10 16:53:06;;;;;;;32.72;21.52;;;7.50;89.40;;;;;;6246805;23;20012;-87
2021/03/10 16:56:02;;;;;;;28.70;20.85;;;7.50;89.40;;;;;;6243899;23;20024;-88
2021/03/10 16:58:33;;;;;;;36.83;22.65;;;7.50;89.60;;;;;;6245444;23;20062;-92
2021/03/10 17:01:15;;;;;;;27.45;18.58;;;7.50;89.50;;;;;;6248774;23;20388;-89
2021/03/10 17:04:04;;;;;;;25.02;18.13;;;7.50;89.40;;;;;;6245598;23;20340;-89